createdAt,value
2022-12-15T00:00:17.262Z,988.23
2022-12-15T00:01:17.252Z,988.22
2022-12-15T00:02:17.327Z,988.19
2022-12-15T00:03:17.363Z,988.17
2022-12-15T00:04:17.214Z,988.15
2022-12-15T00:05:17.212Z,988.11
2022-12-15T00:06:17.262Z,988.13
2022-12-15T00:07:17.194Z,988.11
2022-12-15T00:08:17.163Z,988.11
2022-12-15T00:09:20.414Z,988.13
2022-12-15T00:10:17.155Z,988.11
2022-12-15T00:11:17.141Z,988.11
2022-12-15T00:12:17.125Z,988.12
2022-12-15T00:13:17.119Z,988.13
2022-12-15T00:14:18.066Z,988.13
2022-12-15T00:15:17.102Z,988.10
2022-12-15T00:16:17.195Z,988.08
2022-12-15T00:17:17.078Z,988.10
2022-12-15T00:18:17.043Z,988.13
2022-12-15T00:19:17.043Z,988.11
2022-12-15T00:20:17.013Z,988.12
2022-12-15T00:21:17.008Z,988.09
2022-12-15T00:22:17.022Z,988.13
2022-12-15T00:23:17.051Z,988.11
2022-12-15T00:24:16.973Z,988.12
2022-12-15T00:25:16.955Z,988.14
2022-12-15T00:26:16.953Z,988.18
2022-12-15T00:27:16.947Z,988.14
2022-12-15T00:28:16.915Z,988.11
2022-12-15T00:29:16.922Z,988.17
2022-12-15T00:30:16.897Z,988.11
2022-12-15T00:31:16.978Z,988.15
2022-12-15T00:32:16.885Z,988.17
2022-12-15T00:33:16.874Z,988.14
2022-12-15T00:34:16.861Z,988.21
2022-12-15T00:35:16.834Z,988.21
2022-12-15T00:36:16.825Z,988.23
2022-12-15T00:37:16.824Z,988.27
2022-12-15T00:38:16.796Z,988.26
2022-12-15T00:39:16.807Z,988.31
2022-12-15T00:40:16.786Z,988.31
2022-12-15T00:41:16.787Z,988.33
2022-12-15T00:42:16.795Z,988.35
2022-12-15T00:43:16.744Z,988.36
2022-12-15T00:44:20.589Z,988.37
2022-12-15T00:45:16.731Z,988.36
2022-12-15T00:46:16.770Z,988.36
2022-12-15T00:47:16.722Z,988.34
2022-12-15T00:48:16.948Z,988.37
2022-12-15T00:49:16.665Z,988.40
2022-12-15T00:50:16.657Z,988.41
2022-12-15T00:51:16.651Z,988.44
2022-12-15T00:52:16.636Z,988.41
2022-12-15T00:53:16.618Z,988.43
2022-12-15T00:54:18.283Z,988.46
2022-12-15T00:55:16.600Z,988.42
2022-12-15T00:56:16.586Z,988.47
2022-12-15T00:57:16.575Z,988.47
2022-12-15T00:58:16.561Z,988.50
2022-12-15T00:59:16.546Z,988.54
2022-12-15T01:00:16.527Z,988.56
2022-12-15T01:01:16.642Z,988.52
2022-12-15T01:02:16.612Z,988.53
2022-12-15T01:03:16.831Z,988.53
2022-12-15T01:04:16.557Z,988.56
2022-12-15T01:05:16.465Z,988.53
2022-12-15T01:06:16.466Z,988.59
2022-12-15T01:07:16.456Z,988.56
2022-12-15T01:08:16.452Z,988.58
2022-12-15T01:09:16.417Z,988.61
2022-12-15T01:10:16.422Z,988.66
2022-12-15T01:11:16.396Z,988.67
2022-12-15T01:12:16.398Z,988.70
2022-12-15T01:13:16.376Z,988.74
2022-12-15T01:14:16.364Z,988.71
2022-12-15T01:15:16.358Z,988.75
2022-12-15T01:16:16.406Z,988.78
2022-12-15T01:17:16.354Z,988.77
2022-12-15T01:18:16.324Z,988.83
2022-12-15T01:19:16.744Z,988.83
2022-12-15T01:20:16.285Z,988.82
2022-12-15T01:21:16.270Z,988.82
2022-12-15T01:22:16.279Z,988.83
2022-12-15T01:23:16.248Z,988.81
2022-12-15T01:24:16.241Z,988.77
2022-12-15T01:25:16.220Z,988.80
2022-12-15T01:26:16.208Z,988.83
2022-12-15T01:27:16.207Z,988.81
2022-12-15T01:28:16.196Z,988.84
2022-12-15T01:29:16.177Z,988.88
2022-12-15T01:30:16.190Z,988.88
2022-12-15T01:31:16.215Z,988.84
2022-12-15T01:32:16.150Z,988.90
2022-12-15T01:33:16.129Z,988.84
2022-12-15T01:34:16.119Z,988.92
2022-12-15T01:35:16.131Z,988.88
2022-12-15T01:36:16.092Z,988.91
2022-12-15T01:37:16.089Z,988.90
2022-12-15T01:38:16.069Z,988.92
2022-12-15T01:39:16.060Z,988.91
2022-12-15T01:40:16.058Z,988.89
2022-12-15T01:41:16.028Z,988.89
2022-12-15T01:42:16.036Z,988.84
2022-12-15T01:43:16.016Z,988.86
2022-12-15T01:44:15.999Z,988.90
2022-12-15T01:45:15.979Z,988.89
2022-12-15T01:46:16.106Z,988.88
2022-12-15T01:47:16.040Z,988.89
2022-12-15T01:48:15.943Z,988.89
2022-12-15T01:49:15.929Z,988.87
2022-12-15T01:50:15.918Z,988.88
2022-12-15T01:51:15.907Z,988.91
2022-12-15T01:52:15.906Z,988.86
2022-12-15T01:53:15.878Z,988.92
2022-12-15T01:54:15.888Z,988.94
2022-12-15T01:55:15.860Z,988.93
2022-12-15T01:56:15.851Z,988.92
2022-12-15T01:57:15.856Z,988.95
2022-12-15T01:58:15.828Z,988.98
2022-12-15T01:59:15.812Z,989.01
2022-12-15T02:00:16.480Z,988.99
2022-12-15T02:01:15.862Z,988.96
2022-12-15T02:02:15.918Z,988.96
2022-12-15T02:03:15.831Z,988.99
2022-12-15T02:04:15.754Z,988.99
2022-12-15T02:05:15.740Z,988.99
2022-12-15T02:06:15.731Z,989.01
2022-12-15T02:07:15.961Z,989.05
2022-12-15T02:08:15.732Z,989.06
2022-12-15T02:09:15.682Z,989.09
2022-12-15T02:10:15.689Z,989.10
2022-12-15T02:11:15.662Z,989.08
2022-12-15T02:12:15.661Z,989.13
2022-12-15T02:13:15.631Z,989.13
2022-12-15T02:14:15.645Z,989.12
2022-12-15T02:15:15.614Z,989.15
2022-12-15T02:16:15.629Z,989.14
2022-12-15T02:17:15.637Z,989.14
2022-12-15T02:18:15.580Z,989.14
2022-12-15T02:19:15.561Z,989.17
2022-12-15T02:20:15.550Z,989.18
2022-12-15T02:21:15.540Z,989.17
2022-12-15T02:22:15.549Z,989.12
2022-12-15T02:23:15.519Z,989.14
2022-12-15T02:24:15.511Z,989.10
2022-12-15T02:25:15.491Z,989.11
2022-12-15T02:26:15.501Z,989.09
2022-12-15T02:27:15.483Z,989.11
2022-12-15T02:28:15.461Z,989.14
2022-12-15T02:29:15.443Z,989.12
2022-12-15T02:30:15.436Z,989.15
2022-12-15T02:31:15.473Z,989.21
2022-12-15T02:32:15.423Z,989.21
2022-12-15T02:33:15.388Z,989.21
2022-12-15T02:34:15.381Z,989.24
2022-12-15T02:35:15.363Z,989.23
2022-12-15T02:36:15.593Z,989.26
2022-12-15T02:37:15.365Z,989.25
2022-12-15T02:38:15.347Z,989.28
2022-12-15T02:39:15.332Z,989.29
2022-12-15T02:40:15.552Z,989.29
2022-12-15T02:41:15.294Z,989.31
2022-12-15T02:42:15.299Z,989.31
2022-12-15T02:43:15.741Z,989.31
2022-12-15T02:44:15.276Z,989.35
2022-12-15T02:45:15.264Z,989.40
2022-12-15T02:46:15.287Z,989.47
2022-12-15T02:47:15.244Z,989.45
2022-12-15T02:48:15.462Z,989.48
2022-12-15T02:49:15.202Z,989.43
2022-12-15T02:50:15.194Z,989.48
2022-12-15T02:51:15.185Z,989.46
2022-12-15T02:52:15.174Z,989.48
2022-12-15T02:53:15.155Z,989.48
2022-12-15T02:54:15.145Z,989.53
2022-12-15T02:55:15.133Z,989.51
2022-12-15T02:56:15.115Z,989.53
2022-12-15T02:57:15.115Z,989.59
2022-12-15T02:58:15.094Z,989.56
2022-12-15T02:59:15.083Z,989.57
2022-12-15T03:00:15.304Z,989.58
2022-12-15T03:01:15.104Z,989.64
2022-12-15T03:02:15.643Z,989.68
2022-12-15T03:03:15.073Z,989.71
2022-12-15T03:04:15.024Z,989.65
2022-12-15T03:05:15.018Z,989.72
2022-12-15T03:06:14.996Z,989.81
2022-12-15T03:07:15.007Z,989.80
2022-12-15T03:08:14.965Z,989.78
2022-12-15T03:09:14.969Z,989.82
2022-12-15T03:10:14.945Z,989.83
2022-12-15T03:11:14.946Z,989.86
2022-12-15T03:12:14.934Z,989.85
2022-12-15T03:13:14.915Z,989.89
2022-12-15T03:14:14.897Z,989.89
2022-12-15T03:15:14.907Z,989.92
2022-12-15T03:16:14.900Z,989.92
2022-12-15T03:17:14.883Z,989.95
2022-12-15T03:18:14.853Z,989.93
2022-12-15T03:19:15.094Z,989.95
2022-12-15T03:20:14.826Z,989.92
2022-12-15T03:21:14.818Z,989.95
2022-12-15T03:22:14.815Z,989.98
2022-12-15T03:23:14.793Z,990.00
2022-12-15T03:24:14.778Z,989.99
2022-12-15T03:25:14.785Z,990.02
2022-12-15T03:26:14.763Z,989.99
2022-12-15T03:27:14.756Z,990.02
2022-12-15T03:28:14.727Z,990.01
2022-12-15T03:29:14.718Z,990.00
2022-12-15T03:30:14.717Z,990.03
2022-12-15T03:31:14.747Z,990.02
2022-12-15T03:32:14.782Z,990.04
2022-12-15T03:33:14.676Z,989.98
2022-12-15T03:34:14.657Z,990.03
2022-12-15T03:35:14.666Z,990.00
2022-12-15T03:36:14.637Z,990.08
2022-12-15T03:37:14.639Z,990.09
2022-12-15T03:38:14.607Z,990.14
2022-12-15T03:39:14.619Z,990.18
2022-12-15T03:40:14.851Z,990.11
2022-12-15T03:41:14.591Z,990.06
2022-12-15T03:42:14.567Z,990.12
2022-12-15T03:43:14.557Z,990.06
2022-12-15T03:44:14.801Z,990.06
2022-12-15T03:45:14.528Z,990.02
2022-12-15T03:46:14.556Z,990.00
2022-12-15T03:47:14.519Z,990.00
2022-12-15T03:48:14.484Z,990.01
2022-12-15T03:49:14.485Z,990.04
2022-12-15T03:50:14.459Z,990.03
2022-12-15T03:51:14.544Z,990.00
2022-12-15T03:52:14.454Z,990.05
2022-12-15T03:53:14.448Z,990.04
2022-12-15T03:54:14.422Z,990.03
2022-12-15T03:55:14.422Z,990.01
2022-12-15T03:56:14.392Z,990.07
2022-12-15T03:57:14.401Z,990.02
2022-12-15T03:58:14.368Z,990.10
2022-12-15T03:59:14.377Z,990.11
2022-12-15T04:00:14.341Z,990.12
2022-12-15T04:01:14.405Z,990.10
2022-12-15T04:02:14.504Z,990.13
2022-12-15T04:03:14.380Z,990.17
2022-12-15T04:04:14.291Z,990.17
2022-12-15T04:05:14.299Z,990.15
2022-12-15T04:06:14.280Z,990.17
2022-12-15T04:07:14.289Z,990.12
2022-12-15T04:08:14.249Z,990.16
2022-12-15T04:09:14.250Z,990.21
2022-12-15T04:10:14.230Z,990.25
2022-12-15T04:11:14.239Z,990.24
2022-12-15T04:12:14.200Z,990.31
2022-12-15T04:13:14.201Z,990.32
2022-12-15T04:14:14.169Z,990.27
2022-12-15T04:15:14.159Z,990.31
2022-12-15T04:16:19.494Z,990.31
2022-12-15T04:17:15.226Z,990.34
2022-12-15T04:18:14.139Z,990.42
2022-12-15T04:19:14.117Z,990.47
2022-12-15T04:20:14.101Z,990.48
2022-12-15T04:21:14.102Z,990.52
2022-12-15T04:22:17.943Z,990.44
2022-12-15T04:23:14.090Z,990.53
2022-12-15T04:24:14.059Z,990.50
2022-12-15T04:25:14.045Z,990.55
2022-12-15T04:26:14.030Z,990.55
2022-12-15T04:27:14.095Z,990.52
2022-12-15T04:28:14.009Z,990.49
2022-12-15T04:29:13.989Z,990.53
2022-12-15T04:30:13.980Z,990.48
2022-12-15T04:31:14.207Z,990.53
2022-12-15T04:32:13.971Z,990.52
2022-12-15T04:33:13.948Z,990.54
2022-12-15T04:34:13.942Z,990.53
2022-12-15T04:35:13.937Z,990.53
2022-12-15T04:36:13.910Z,990.57
2022-12-15T04:37:13.919Z,990.58
2022-12-15T04:38:13.887Z,990.64
2022-12-15T04:39:13.880Z,990.64
2022-12-15T04:40:13.860Z,990.61
2022-12-15T04:41:13.852Z,990.67
2022-12-15T04:42:13.861Z,990.66
2022-12-15T04:43:13.829Z,990.67
2022-12-15T04:44:13.812Z,990.74
2022-12-15T04:45:20.158Z,990.75
2022-12-15T04:46:14.931Z,990.82
2022-12-15T04:47:13.809Z,990.79
2022-12-15T04:48:13.775Z,990.77
2022-12-15T04:49:13.751Z,990.83
2022-12-15T04:50:13.747Z,990.86
2022-12-15T04:51:13.731Z,990.84
2022-12-15T04:52:13.714Z,990.85
2022-12-15T04:53:13.700Z,990.88
2022-12-15T04:54:13.681Z,990.90
2022-12-15T04:55:13.693Z,990.91
2022-12-15T04:56:18.152Z,990.96
2022-12-15T04:57:14.668Z,990.93
2022-12-15T04:58:13.652Z,990.96
2022-12-15T04:59:13.659Z,991.00
2022-12-15T05:00:13.626Z,990.99
2022-12-15T05:01:13.669Z,991.00
2022-12-15T05:02:13.725Z,990.99
2022-12-15T05:03:18.141Z,990.98
2022-12-15T05:04:14.657Z,990.98
2022-12-15T05:05:13.562Z,990.98
2022-12-15T05:06:13.542Z,991.01
2022-12-15T05:07:13.549Z,990.96
2022-12-15T05:08:13.539Z,990.98
2022-12-15T05:09:13.746Z,990.99
2022-12-15T05:10:15.354Z,991.02
2022-12-15T05:11:13.493Z,990.99
2022-12-15T05:12:13.481Z,990.97
2022-12-15T05:13:13.463Z,991.02
2022-12-15T05:14:13.454Z,991.00
2022-12-15T05:15:13.432Z,991.01
2022-12-15T05:16:13.480Z,991.03
2022-12-15T05:17:13.468Z,991.01
2022-12-15T05:18:13.404Z,991.00
2022-12-15T05:19:13.670Z,991.06
2022-12-15T05:20:13.372Z,991.08
2022-12-15T05:21:13.363Z,991.06
2022-12-15T05:22:13.356Z,991.02
2022-12-15T05:23:13.582Z,991.06
2022-12-15T05:24:13.337Z,991.07
2022-12-15T05:25:13.312Z,991.07
2022-12-15T05:26:13.310Z,991.09
2022-12-15T05:27:13.332Z,991.06
2022-12-15T05:28:13.288Z,991.09
2022-12-15T05:29:13.262Z,991.11
2022-12-15T05:30:13.253Z,991.09
2022-12-15T05:31:13.439Z,991.10
2022-12-15T05:32:13.276Z,991.11
2022-12-15T05:33:13.223Z,991.13
2022-12-15T05:34:13.214Z,991.13
2022-12-15T05:35:13.203Z,991.16
2022-12-15T05:36:13.197Z,991.19
2022-12-15T05:37:13.183Z,991.14
2022-12-15T05:38:14.116Z,991.17
2022-12-15T05:39:13.157Z,991.19
2022-12-15T05:40:13.141Z,991.23
2022-12-15T05:41:13.121Z,991.25
2022-12-15T05:42:13.120Z,991.23
2022-12-15T05:43:13.103Z,991.26
2022-12-15T05:44:13.089Z,991.30
2022-12-15T05:45:13.098Z,991.29
2022-12-15T05:46:13.112Z,991.28
2022-12-15T05:47:13.057Z,991.31
2022-12-15T05:48:13.044Z,991.30
2022-12-15T05:49:13.025Z,991.30
2022-12-15T05:50:13.012Z,991.37
2022-12-15T05:51:13.803Z,991.37
2022-12-15T05:52:13.006Z,991.39
2022-12-15T05:53:12.974Z,991.47
2022-12-15T05:54:12.970Z,991.48
2022-12-15T05:55:12.958Z,991.45
2022-12-15T05:56:12.947Z,991.50
2022-12-15T05:57:12.934Z,991.51
2022-12-15T05:58:12.924Z,991.52
2022-12-15T05:59:12.921Z,991.53
2022-12-15T06:00:12.895Z,991.49
2022-12-15T06:01:12.884Z,991.54
2022-12-15T06:02:13.068Z,991.54
2022-12-15T06:03:13.002Z,991.51
2022-12-15T06:04:12.998Z,991.53
2022-12-15T06:05:12.864Z,991.47
2022-12-15T06:06:12.829Z,991.52
2022-12-15T06:07:12.816Z,991.57
2022-12-15T06:08:12.796Z,991.57
2022-12-15T06:09:12.784Z,991.61
2022-12-15T06:10:12.771Z,991.65
2022-12-15T06:11:12.765Z,991.65
2022-12-15T06:12:12.753Z,991.70
2022-12-15T06:13:12.731Z,991.68
2022-12-15T06:14:12.734Z,991.73
2022-12-15T06:15:12.717Z,991.82
2022-12-15T06:16:12.792Z,991.83
2022-12-15T06:17:12.705Z,991.87
2022-12-15T06:18:12.676Z,991.84
2022-12-15T06:19:12.676Z,991.89
2022-12-15T06:20:12.661Z,991.89
2022-12-15T06:21:12.646Z,991.87
2022-12-15T06:22:12.941Z,991.89
2022-12-15T06:23:12.616Z,991.89
2022-12-15T06:24:12.615Z,991.84
2022-12-15T06:25:12.596Z,991.86
2022-12-15T06:26:12.587Z,991.86
2022-12-15T06:27:12.594Z,991.92
2022-12-15T06:28:12.565Z,991.91
2022-12-15T06:29:12.544Z,991.92
2022-12-15T06:30:12.527Z,992.00
2022-12-15T06:31:12.584Z,991.96
2022-12-15T06:32:12.740Z,992.02
2022-12-15T06:33:12.497Z,992.09
2022-12-15T06:34:12.484Z,992.12
2022-12-15T06:35:12.474Z,992.18
2022-12-15T06:36:12.457Z,992.15
2022-12-15T06:37:12.863Z,992.12
2022-12-15T06:38:12.444Z,992.16
2022-12-15T06:39:12.428Z,992.16
2022-12-15T06:40:12.429Z,992.15
2022-12-15T06:41:12.403Z,992.14
2022-12-15T06:42:12.691Z,992.21
2022-12-15T06:43:12.374Z,992.16
2022-12-15T06:44:12.374Z,992.24
2022-12-15T06:45:12.358Z,992.24
2022-12-15T06:46:12.387Z,992.25
2022-12-15T06:47:12.409Z,992.21
2022-12-15T06:48:12.340Z,992.24
2022-12-15T06:49:12.305Z,992.25
2022-12-15T06:50:12.297Z,992.21
2022-12-15T06:51:16.857Z,992.24
2022-12-15T06:52:13.290Z,992.24
2022-12-15T06:53:12.270Z,992.24
2022-12-15T06:54:12.252Z,992.26
2022-12-15T06:55:12.227Z,992.30
2022-12-15T06:56:12.350Z,992.27
2022-12-15T06:57:12.207Z,992.29
2022-12-15T06:58:12.201Z,992.30
2022-12-15T06:59:12.177Z,992.32
2022-12-15T07:00:12.178Z,992.29
2022-12-15T07:01:12.158Z,992.30
2022-12-15T07:02:12.312Z,992.28
2022-12-15T07:03:12.294Z,992.25
2022-12-15T07:04:12.434Z,992.23
2022-12-15T07:05:12.118Z,992.24
2022-12-15T07:06:12.099Z,992.22
2022-12-15T07:07:12.088Z,992.29
2022-12-15T07:08:12.079Z,992.33
2022-12-15T07:09:12.053Z,992.33
2022-12-15T07:10:12.048Z,992.34
2022-12-15T07:11:12.048Z,992.34
2022-12-15T07:12:12.029Z,992.36
2022-12-15T07:13:12.042Z,992.33
2022-12-15T07:14:11.996Z,992.31
2022-12-15T07:15:12.019Z,992.33
2022-12-15T07:16:12.355Z,992.38
2022-12-15T07:17:11.970Z,992.40
2022-12-15T07:18:11.950Z,992.41
2022-12-15T07:19:11.939Z,992.38
2022-12-15T07:20:11.919Z,992.44
2022-12-15T07:21:11.919Z,992.41
2022-12-15T07:22:11.918Z,992.45
2022-12-15T07:23:11.890Z,992.42
2022-12-15T07:24:11.878Z,992.50
2022-12-15T07:25:11.859Z,992.43
2022-12-15T07:26:11.985Z,992.44
2022-12-15T07:27:11.851Z,992.42
2022-12-15T07:28:11.827Z,992.44
2022-12-15T07:29:11.852Z,992.41
2022-12-15T07:30:11.800Z,992.46
2022-12-15T07:31:11.826Z,992.48
2022-12-15T07:32:11.787Z,992.53
2022-12-15T07:33:11.810Z,992.58
2022-12-15T07:34:11.778Z,992.57
2022-12-15T07:35:11.762Z,992.58
2022-12-15T07:36:11.777Z,992.59
2022-12-15T07:37:11.741Z,992.56
2022-12-15T07:38:11.720Z,992.54
2022-12-15T07:39:12.731Z,992.51
2022-12-15T07:40:11.699Z,992.49
2022-12-15T07:41:11.672Z,992.47
2022-12-15T07:42:11.671Z,992.48
2022-12-15T07:43:11.641Z,992.47
2022-12-15T07:44:11.637Z,992.47
2022-12-15T07:45:11.619Z,992.51
2022-12-15T07:46:11.641Z,992.50
2022-12-15T07:47:11.610Z,992.47
2022-12-15T07:48:11.591Z,992.52
2022-12-15T07:49:11.631Z,992.56
2022-12-15T07:50:11.558Z,992.58
2022-12-15T07:51:19.016Z,992.60
2022-12-15T07:52:12.552Z,992.62
2022-12-15T07:53:11.521Z,992.61
2022-12-15T07:54:11.524Z,992.65
2022-12-15T07:55:11.514Z,992.63
2022-12-15T07:56:11.491Z,992.58
2022-12-15T07:57:11.481Z,992.64
2022-12-15T07:58:11.471Z,992.64
2022-12-15T07:59:12.420Z,992.64
2022-12-15T08:00:11.651Z,992.67
2022-12-15T08:01:11.501Z,992.70
2022-12-15T08:02:11.633Z,992.74
2022-12-15T08:03:11.512Z,992.78
2022-12-15T08:04:11.391Z,992.74
2022-12-15T08:05:11.402Z,992.80
2022-12-15T08:06:11.424Z,992.76
2022-12-15T08:07:11.358Z,992.78
2022-12-15T08:08:15.341Z,992.78
2022-12-15T08:09:11.648Z,992.86
2022-12-15T08:10:11.540Z,992.86
2022-12-15T08:11:11.303Z,992.89
2022-12-15T08:12:12.295Z,992.92
2022-12-15T08:13:11.284Z,992.89
2022-12-15T08:14:16.931Z,992.97
2022-12-15T08:15:12.259Z,992.95
2022-12-15T08:16:11.291Z,992.99
2022-12-15T08:17:11.242Z,992.93
2022-12-15T08:18:11.231Z,992.95
2022-12-15T08:19:11.205Z,992.96
2022-12-15T08:20:11.202Z,992.96
2022-12-15T08:21:11.181Z,992.98
2022-12-15T08:22:11.185Z,992.99
2022-12-15T08:23:11.154Z,992.97
2022-12-15T08:24:11.152Z,993.01
2022-12-15T08:25:11.134Z,993.03
2022-12-15T08:26:11.164Z,993.04
2022-12-15T08:27:11.114Z,993.04
2022-12-15T08:28:11.124Z,993.00
2022-12-15T08:29:49.650Z,993.04
2022-12-15T08:30:12.074Z,992.99
2022-12-15T08:31:11.062Z,993.01
2022-12-15T08:32:11.134Z,993.01
2022-12-15T08:33:11.034Z,993.05
2022-12-15T08:34:11.023Z,993.04
2022-12-15T08:35:31.742Z,993.08
2022-12-15T08:36:12.015Z,993.09
2022-12-15T08:37:10.987Z,993.15
2022-12-15T08:38:10.986Z,993.14
2022-12-15T08:39:10.965Z,993.19
2022-12-15T08:40:10.949Z,993.14
2022-12-15T08:41:10.935Z,993.08
2022-12-15T08:42:10.944Z,993.12
2022-12-15T08:43:10.925Z,993.11
2022-12-15T08:44:10.902Z,993.16
2022-12-15T08:45:10.886Z,993.10
2022-12-15T08:46:10.929Z,993.16
2022-12-15T08:47:10.875Z,993.10
2022-12-15T08:48:10.854Z,993.08
2022-12-15T08:49:10.835Z,993.09
2022-12-15T08:50:10.834Z,993.12
2022-12-15T08:51:10.819Z,993.16
2022-12-15T08:52:11.767Z,993.11
2022-12-15T08:53:32.412Z,993.07
2022-12-15T08:54:11.789Z,993.05
2022-12-15T08:55:11.183Z,993.01
2022-12-15T08:56:10.755Z,993.05
2022-12-15T08:57:10.746Z,993.03
2022-12-15T08:58:10.728Z,993.10
2022-12-15T08:59:10.777Z,993.10
2022-12-15T09:00:10.706Z,993.09
2022-12-15T09:01:10.780Z,993.13
2022-12-15T09:02:10.761Z,993.15
2022-12-15T09:03:10.666Z,993.14
2022-12-15T09:04:10.795Z,993.07
2022-12-15T09:05:10.638Z,993.10
2022-12-15T09:06:10.636Z,993.10
2022-12-15T09:07:10.627Z,993.05
2022-12-15T09:08:10.603Z,993.03
2022-12-15T09:09:10.589Z,993.04
2022-12-15T09:10:10.578Z,993.08
2022-12-15T09:11:10.571Z,993.06
2022-12-15T09:12:10.567Z,993.10
2022-12-15T09:13:10.537Z,993.05
2022-12-15T09:14:10.529Z,993.04
2022-12-15T09:15:10.518Z,993.06
2022-12-15T09:16:11.351Z,993.08
2022-12-15T09:17:10.584Z,993.04
2022-12-15T09:18:10.488Z,993.06
2022-12-15T09:19:10.475Z,993.11
2022-12-15T09:20:12.251Z,993.08
2022-12-15T09:21:10.456Z,993.09
2022-12-15T09:22:10.445Z,993.05
2022-12-15T09:23:10.435Z,993.04
2022-12-15T09:24:10.408Z,993.04
2022-12-15T09:25:10.400Z,993.10
2022-12-15T09:26:10.380Z,993.07
2022-12-15T09:27:10.387Z,993.13
2022-12-15T09:28:10.361Z,993.15
2022-12-15T09:29:10.357Z,993.12
2022-12-15T09:30:10.340Z,993.14
2022-12-15T09:31:10.417Z,993.17
2022-12-15T09:32:14.130Z,993.11
2022-12-15T09:33:10.298Z,993.11
2022-12-15T09:34:10.285Z,993.11
2022-12-15T09:35:10.281Z,993.14
2022-12-15T09:36:10.259Z,993.09
2022-12-15T09:37:10.283Z,993.15
2022-12-15T09:38:10.249Z,993.20
2022-12-15T09:39:10.223Z,993.17
2022-12-15T09:40:10.199Z,993.18
2022-12-15T09:41:10.210Z,993.15
2022-12-15T09:42:10.190Z,993.21
2022-12-15T09:43:33.570Z,993.22
2022-12-15T09:44:11.152Z,993.23
2022-12-15T09:45:10.162Z,993.27
2022-12-15T09:46:10.187Z,993.29
2022-12-15T09:47:10.169Z,993.29
2022-12-15T09:48:10.100Z,993.27
2022-12-15T09:49:10.099Z,993.26
2022-12-15T09:50:10.083Z,993.26
2022-12-15T09:51:10.071Z,993.27
2022-12-15T09:52:11.420Z,993.29
2022-12-15T09:53:36.716Z,993.29
2022-12-15T09:54:11.033Z,993.33
2022-12-15T09:55:10.083Z,993.27
2022-12-15T09:56:10.009Z,993.35
2022-12-15T09:57:10.002Z,993.33
2022-12-15T09:58:11.231Z,993.38
2022-12-15T09:59:10.035Z,993.41
2022-12-15T10:00:09.956Z,993.43
2022-12-15T10:01:09.949Z,993.43
2022-12-15T10:02:10.127Z,993.45
2022-12-15T10:03:10.070Z,993.47
2022-12-15T10:04:09.966Z,993.43
2022-12-15T10:05:09.914Z,993.47
2022-12-15T10:07:10.889Z,993.50
2022-12-15T10:08:09.863Z,993.55
2022-12-15T10:09:09.844Z,993.65
2022-12-15T10:10:09.835Z,993.73
2022-12-15T10:11:09.820Z,993.78
2022-12-15T10:12:09.822Z,993.83
2022-12-15T10:13:09.803Z,993.82
2022-12-15T10:14:09.779Z,993.85
2022-12-15T10:15:09.774Z,993.86
2022-12-15T10:16:09.818Z,993.89
2022-12-15T10:17:09.753Z,993.86
2022-12-15T10:18:09.734Z,993.87
2022-12-15T10:19:09.723Z,993.87
2022-12-15T10:20:09.714Z,993.85
2022-12-15T10:21:09.694Z,993.84
2022-12-15T10:22:09.694Z,993.83
2022-12-15T10:23:09.707Z,993.85
2022-12-15T10:24:09.664Z,993.77
2022-12-15T10:25:10.821Z,993.82
2022-12-15T10:26:09.645Z,993.80
2022-12-15T10:27:09.637Z,993.71
2022-12-15T10:28:09.644Z,993.70
2022-12-15T10:29:09.646Z,993.66
2022-12-15T10:30:09.895Z,993.67
2022-12-15T10:31:09.595Z,993.65
2022-12-15T10:32:09.570Z,993.65
2022-12-15T10:33:09.562Z,993.59
2022-12-15T10:34:09.554Z,993.59
2022-12-15T10:35:09.519Z,993.63
2022-12-15T10:36:09.506Z,993.68
2022-12-15T10:37:09.512Z,993.64
2022-12-15T10:38:09.485Z,993.66
2022-12-15T10:39:12.850Z,993.69
2022-12-15T10:40:10.455Z,993.66
2022-12-15T10:41:09.449Z,993.69
2022-12-15T10:42:09.451Z,993.69
2022-12-15T10:43:09.420Z,993.66
2022-12-15T10:44:09.412Z,993.67
2022-12-15T10:45:09.396Z,993.72
2022-12-15T10:46:09.499Z,993.75
2022-12-15T10:47:09.377Z,993.73
2022-12-15T10:48:09.357Z,993.80
2022-12-15T10:49:09.345Z,993.75
2022-12-15T10:50:09.336Z,993.77
2022-12-15T10:51:09.326Z,993.77
2022-12-15T10:52:09.315Z,993.74
2022-12-15T10:53:09.296Z,993.76
2022-12-15T10:54:09.286Z,993.76
2022-12-15T10:55:09.272Z,993.78
2022-12-15T10:56:09.251Z,993.75
2022-12-15T10:57:09.375Z,993.77
2022-12-15T10:58:09.227Z,993.74
2022-12-15T10:59:09.218Z,993.77
2022-12-15T11:00:09.207Z,993.77
2022-12-15T11:01:09.298Z,993.73
2022-12-15T11:02:09.243Z,993.73
2022-12-15T11:03:09.347Z,993.66
2022-12-15T11:04:09.212Z,993.60
2022-12-15T11:05:09.144Z,993.60
2022-12-15T11:06:09.127Z,993.58
2022-12-15T11:07:09.138Z,993.56
2022-12-15T11:08:12.196Z,993.51
2022-12-15T11:09:09.107Z,993.48
2022-12-15T11:10:09.089Z,993.52
2022-12-15T11:11:09.074Z,993.54
2022-12-15T11:13:10.049Z,993.59
2022-12-15T11:14:09.024Z,993.58
2022-12-15T11:15:09.030Z,993.57
2022-12-15T11:16:08.998Z,993.53
2022-12-15T11:17:08.997Z,993.57
2022-12-15T11:18:08.988Z,993.55
2022-12-15T11:19:09.007Z,993.52
2022-12-15T11:20:08.968Z,993.57
2022-12-15T11:21:08.978Z,993.53
2022-12-15T11:22:08.938Z,993.60
2022-12-15T11:23:08.938Z,993.60
2022-12-15T11:24:08.917Z,993.66
2022-12-15T11:25:08.901Z,993.65
2022-12-15T11:26:08.959Z,993.69
2022-12-15T11:27:08.879Z,993.72
2022-12-15T11:28:08.866Z,993.75
2022-12-15T11:29:08.849Z,993.79
2022-12-15T11:30:08.830Z,993.76
2022-12-15T11:31:08.829Z,993.78
2022-12-15T11:32:08.819Z,993.72
2022-12-15T11:33:08.804Z,993.69
2022-12-15T11:34:08.780Z,993.64
2022-12-15T11:35:08.779Z,993.60
2022-12-15T11:36:08.759Z,993.62
2022-12-15T11:37:08.750Z,993.60
2022-12-15T11:38:08.730Z,993.56
2022-12-15T11:39:08.745Z,993.57
2022-12-15T11:40:08.700Z,993.57
2022-12-15T11:41:08.699Z,993.59
2022-12-15T11:42:08.679Z,993.55
2022-12-15T11:43:08.670Z,993.62
2022-12-15T11:44:08.640Z,993.63
2022-12-15T11:45:08.650Z,993.61
2022-12-15T11:46:08.629Z,993.56
2022-12-15T11:47:08.626Z,993.59
2022-12-15T11:48:08.591Z,993.57
2022-12-15T11:49:08.591Z,993.54
2022-12-15T11:50:08.569Z,993.53
2022-12-15T11:51:08.563Z,993.52
2022-12-15T11:52:08.550Z,993.55
2022-12-15T11:53:09.487Z,993.53
2022-12-15T11:54:08.559Z,993.52
2022-12-15T11:55:08.511Z,993.49
2022-12-15T11:56:08.492Z,993.50
2022-12-15T11:57:08.497Z,993.50
2022-12-15T11:58:08.460Z,993.44
2022-12-15T11:59:08.463Z,993.40
2022-12-15T12:00:08.442Z,993.40
2022-12-15T12:01:08.443Z,993.39
2022-12-15T12:02:08.447Z,993.36
2022-12-15T12:03:08.468Z,993.41
2022-12-15T12:04:08.397Z,993.38
2022-12-15T12:05:08.394Z,993.42
2022-12-15T12:06:08.382Z,993.42
2022-12-15T12:07:08.362Z,993.43
2022-12-15T12:08:08.344Z,993.42
2022-12-15T12:09:08.343Z,993.44
2022-12-15T12:10:08.332Z,993.41
2022-12-15T12:11:08.422Z,993.36
2022-12-15T12:12:08.332Z,993.46
2022-12-15T12:13:08.612Z,993.47
2022-12-15T12:14:11.749Z,993.44
2022-12-15T12:15:08.303Z,993.46
2022-12-15T12:16:08.304Z,993.45
2022-12-15T12:17:08.243Z,993.40
2022-12-15T12:18:08.233Z,993.43
2022-12-15T12:19:08.259Z,993.38
2022-12-15T12:20:11.532Z,993.38
2022-12-15T12:21:08.182Z,993.38
2022-12-15T12:22:09.140Z,993.35
2022-12-15T12:23:08.160Z,993.36
2022-12-15T12:24:08.143Z,993.39
2022-12-15T12:25:08.128Z,993.35
2022-12-15T12:26:08.116Z,993.43
2022-12-15T12:27:08.113Z,993.42
2022-12-15T12:28:08.083Z,993.40
2022-12-15T12:29:08.075Z,993.48
2022-12-15T12:30:08.061Z,993.53